sensor_id;sensor_type;location;lat;lon;timestamp;P1;durP1;ratioP1;P2;durP2;ratioP2
10851;SDS011;5479;52.046;6.314;2023-03-20T00:00:29;20.00;;;12.57;;
10851;SDS011;5479;52.046;6.314;2023-03-20T00:03:00;17.83;;;11.80;;
10851;SDS011;5479;52.046;6.314;2023-03-20T00:05:29;20.07;;;11.07;;
10851;SDS011;5479;52.046;6.314;2023-03-20T00:07:58;16.67;;;11.00;;
10851;SDS011;5479;52.046;6.314;2023-03-20T00:10:29;17.50;;;10.87;;
10851;SDS011;5479;52.046;6.314;2023-03-20T00:13:02;16.93;;;11.00;;
10851;SDS011;5479;52.046;6.314;2023-03-20T00:15:32;15.63;;;10.30;;
10851;SDS011;5479;52.046;6.314;2023-03-20T00:18:03;14.67;;;9.40;;
10851;SDS011;5479;52.046;6.314;2023-03-20T00:20:38;16.03;;;10.13;;
10851;SDS011;5479;52.046;6.314;2023-03-20T00:23:06;15.47;;;9.77;;
10851;SDS011;5479;52.046;6.314;2023-03-20T00:25:34;14.80;;;10.17;;
10851;SDS011;5479;52.046;6.314;2023-03-20T00:28:15;15.80;;;9.40;;
10851;SDS011;5479;52.046;6.314;2023-03-20T00:31:04;15.00;;;8.97;;
10851;SDS011;5479;52.046;6.314;2023-03-20T00:33:40;13.00;;;9.37;;
10851;SDS011;5479;52.046;6.314;2023-03-20T00:36:08;14.27;;;8.80;;
10851;SDS011;5479;52.046;6.314;2023-03-20T00:38:36;15.97;;;9.77;;
10851;SDS011;5479;52.046;6.314;2023-03-20T00:41:10;15.97;;;9.10;;
10851;SDS011;5479;52.046;6.314;2023-03-20T00:43:49;12.93;;;8.50;;
10851;SDS011;5479;52.046;6.314;2023-03-20T00:46:21;14.63;;;8.63;;
10851;SDS011;5479;52.046;6.314;2023-03-20T00:48:50;12.13;;;8.00;;
10851;SDS011;5479;52.046;6.314;2023-03-20T00:51:18;14.43;;;8.33;;
10851;SDS011;5479;52.046;6.314;2023-03-20T00:53:46;12.40;;;8.07;;
10851;SDS011;5479;52.046;6.314;2023-03-20T00:56:22;13.20;;;7.77;;
10851;SDS011;5479;52.046;6.314;2023-03-20T00:58:58;12.07;;;7.97;;
10851;SDS011;5479;52.046;6.314;2023-03-20T01:01:27;11.87;;;7.70;;
10851;SDS011;5479;52.046;6.314;2023-03-20T01:03:56;12.70;;;8.43;;
10851;SDS011;5479;52.046;6.314;2023-03-20T01:06:24;14.53;;;8.77;;
10851;SDS011;5479;52.046;6.314;2023-03-20T01:08:54;12.83;;;8.67;;
10851;SDS011;5479;52.046;6.314;2023-03-20T01:11:23;17.03;;;9.83;;
10851;SDS011;5479;52.046;6.314;2023-03-20T01:13:51;18.90;;;12.17;;
10851;SDS011;5479;52.046;6.314;2023-03-20T01:16:21;17.80;;;11.47;;
10851;SDS011;5479;52.046;6.314;2023-03-20T01:18:50;17.83;;;11.77;;
10851;SDS011;5479;52.046;6.314;2023-03-20T01:21:19;22.00;;;13.13;;
10851;SDS011;5479;52.046;6.314;2023-03-20T01:23:48;19.67;;;12.47;;
10851;SDS011;5479;52.046;6.314;2023-03-20T01:26:19;18.23;;;11.70;;
10851;SDS011;5479;52.046;6.314;2023-03-20T01:28:50;19.07;;;11.50;;
10851;SDS011;5479;52.046;6.314;2023-03-20T01:31:18;19.43;;;11.67;;
10851;SDS011;5479;52.046;6.314;2023-03-20T01:33:48;17.93;;;11.43;;
10851;SDS011;5479;52.046;6.314;2023-03-20T01:36:16;17.70;;;11.87;;
10851;SDS011;5479;52.046;6.314;2023-03-20T01:38:48;18.30;;;11.27;;
10851;SDS011;5479;52.046;6.314;2023-03-20T01:41:21;17.07;;;11.53;;
10851;SDS011;5479;52.046;6.314;2023-03-20T01:43:50;18.47;;;11.77;;
10851;SDS011;5479;52.046;6.314;2023-03-20T01:46:19;17.43;;;11.50;;
10851;SDS011;5479;52.046;6.314;2023-03-20T01:49:00;17.77;;;11.33;;
10851;SDS011;5479;52.046;6.314;2023-03-20T01:51:34;15.23;;;10.63;;
10851;SDS011;5479;52.046;6.314;2023-03-20T01:54:04;15.87;;;11.40;;
10851;SDS011;5479;52.046;6.314;2023-03-20T01:56:37;16.30;;;10.83;;
10851;SDS011;5479;52.046;6.314;2023-03-20T01:59:09;16.33;;;11.33;;
10851;SDS011;5479;52.046;6.314;2023-03-20T02:01:41;16.47;;;10.63;;
10851;SDS011;5479;52.046;6.314;2023-03-20T02:04:11;18.27;;;11.40;;
10851;SDS011;5479;52.046;6.314;2023-03-20T02:06:42;17.63;;;12.00;;
10851;SDS011;5479;52.046;6.314;2023-03-20T02:09:11;16.60;;;11.90;;
10851;SDS011;5479;52.046;6.314;2023-03-20T02:11:39;19.43;;;11.37;;
10851;SDS011;5479;52.046;6.314;2023-03-20T02:14:09;16.13;;;11.00;;
10851;SDS011;5479;52.046;6.314;2023-03-20T02:16:39;16.90;;;11.47;;
10851;SDS011;5479;52.046;6.314;2023-03-20T02:19:08;19.23;;;12.23;;
10851;SDS011;5479;52.046;6.314;2023-03-20T02:25:04;17.63;;;11.87;;
10851;SDS011;5479;52.046;6.314;2023-03-20T02:28:01;17.63;;;12.60;;
10851;SDS011;5479;52.046;6.314;2023-03-20T02:31:11;21.57;;;13.90;;
10851;SDS011;5479;52.046;6.314;2023-03-20T02:34:04;22.00;;;13.43;;
10851;SDS011;5479;52.046;6.314;2023-03-20T02:40:19;20.40;;;13.20;;
10851;SDS011;5479;52.046;6.314;2023-03-20T02:42:53;17.40;;;12.50;;
10851;SDS011;5479;52.046;6.314;2023-03-20T02:45:28;19.23;;;12.67;;
10851;SDS011;5479;52.046;6.314;2023-03-20T02:48:03;16.97;;;11.97;;
10851;SDS011;5479;52.046;6.314;2023-03-20T02:50:39;14.43;;;10.97;;
10851;SDS011;5479;52.046;6.314;2023-03-20T02:53:17;17.17;;;11.53;;
10851;SDS011;5479;52.046;6.314;2023-03-20T02:55:57;13.80;;;9.80;;
10851;SDS011;5479;52.046;6.314;2023-03-20T02:58:35;17.00;;;10.33;;
10851;SDS011;5479;52.046;6.314;2023-03-20T03:01:12;15.50;;;10.90;;
10851;SDS011;5479;52.046;6.314;2023-03-20T03:03:45;15.47;;;9.63;;
10851;SDS011;5479;52.046;6.314;2023-03-20T03:06:17;14.90;;;9.70;;
10851;SDS011;5479;52.046;6.314;2023-03-20T03:08:53;15.63;;;10.43;;
10851;SDS011;5479;52.046;6.314;2023-03-20T03:11:28;16.47;;;9.73;;
10851;SDS011;5479;52.046;6.314;2023-03-20T03:13:59;15.47;;;9.33;;
10851;SDS011;5479;52.046;6.314;2023-03-20T03:16:29;15.27;;;9.57;;
10851;SDS011;5479;52.046;6.314;2023-03-20T03:19:02;16.33;;;10.50;;
10851;SDS011;5479;52.046;6.314;2023-03-20T03:21:34;15.23;;;9.60;;
10851;SDS011;5479;52.046;6.314;2023-03-20T03:24:05;14.93;;;9.53;;
10851;SDS011;5479;52.046;6.314;2023-03-20T03:26:42;13.97;;;9.53;;
10851;SDS011;5479;52.046;6.314;2023-03-20T03:29:12;14.30;;;8.87;;
10851;SDS011;5479;52.046;6.314;2023-03-20T03:31:45;15.63;;;9.20;;
10851;SDS011;5479;52.046;6.314;2023-03-20T03:34:14;12.80;;;8.20;;
10851;SDS011;5479;52.046;6.314;2023-03-20T03:36:45;12.23;;;7.53;;
10851;SDS011;5479;52.046;6.314;2023-03-20T03:39:19;13.10;;;7.77;;
10851;SDS011;5479;52.046;6.314;2023-03-20T03:41:56;13.70;;;7.17;;
10851;SDS011;5479;52.046;6.314;2023-03-20T03:44:34;12.03;;;7.10;;
10851;SDS011;5479;52.046;6.314;2023-03-20T03:47:09;12.30;;;7.27;;
10851;SDS011;5479;52.046;6.314;2023-03-20T03:49:40;12.30;;;7.33;;
10851;SDS011;5479;52.046;6.314;2023-03-20T03:52:14;10.53;;;6.70;;
10851;SDS011;5479;52.046;6.314;2023-03-20T03:54:46;12.17;;;7.00;;
10851;SDS011;5479;52.046;6.314;2023-03-20T03:57:21;10.77;;;6.67;;
10851;SDS011;5479;52.046;6.314;2023-03-20T03:59:54;10.23;;;7.10;;
10851;SDS011;5479;52.046;6.314;2023-03-20T04:02:23;13.20;;;6.80;;
10851;SDS011;5479;52.046;6.314;2023-03-20T04:04:52;12.13;;;7.03;;
10851;SDS011;5479;52.046;6.314;2023-03-20T04:07:23;12.27;;;6.93;;
10851;SDS011;5479;52.046;6.314;2023-03-20T04:09:54;11.60;;;6.13;;
10851;SDS011;5479;52.046;6.314;2023-03-20T04:12:31;11.03;;;6.23;;
10851;SDS011;5479;52.046;6.314;2023-03-20T04:15:00;9.30;;;5.70;;
10851;SDS011;5479;52.046;6.314;2023-03-20T04:17:29;9.53;;;5.50;;
10851;SDS011;5479;52.046;6.314;2023-03-20T04:19:57;10.30;;;5.23;;
10851;SDS011;5479;52.046;6.314;2023-03-20T04:22:25;9.73;;;5.27;;
10851;SDS011;5479;52.046;6.314;2023-03-20T04:24:53;8.80;;;5.53;;
10851;SDS011;5479;52.046;6.314;2023-03-20T04:27:21;10.43;;;5.23;;
10851;SDS011;5479;52.046;6.314;2023-03-20T04:29:51;9.23;;;5.10;;
10851;SDS011;5479;52.046;6.314;2023-03-20T04:32:19;10.13;;;5.10;;
10851;SDS011;5479;52.046;6.314;2023-03-20T04:34:47;9.13;;;5.03;;
10851;SDS011;5479;52.046;6.314;2023-03-20T04:37:14;8.53;;;4.87;;
10851;SDS011;5479;52.046;6.314;2023-03-20T04:39:42;10.53;;;5.33;;
10851;SDS011;5479;52.046;6.314;2023-03-20T04:42:10;9.93;;;5.87;;
10851;SDS011;5479;52.046;6.314;2023-03-20T04:44:38;9.40;;;5.60;;
10851;SDS011;5479;52.046;6.314;2023-03-20T04:47:08;10.37;;;6.37;;
10851;SDS011;5479;52.046;6.314;2023-03-20T04:49:36;11.67;;;6.47;;
10851;SDS011;5479;52.046;6.314;2023-03-20T04:52:04;10.13;;;6.40;;
10851;SDS011;5479;52.046;6.314;2023-03-20T04:54:32;13.90;;;6.77;;
10851;SDS011;5479;52.046;6.314;2023-03-20T04:57:00;15.03;;;7.17;;
10851;SDS011;5479;52.046;6.314;2023-03-20T04:59:28;11.63;;;7.20;;
10851;SDS011;5479;52.046;6.314;2023-03-20T05:01:56;12.10;;;7.37;;
10851;SDS011;5479;52.046;6.314;2023-03-20T05:04:26;11.97;;;7.40;;
10851;SDS011;5479;52.046;6.314;2023-03-20T05:06:55;11.50;;;7.40;;
10851;SDS011;5479;52.046;6.314;2023-03-20T05:09:23;12.50;;;8.10;;
10851;SDS011;5479;52.046;6.314;2023-03-20T05:11:50;13.33;;;7.80;;
10851;SDS011;5479;52.046;6.314;2023-03-20T05:14:18;12.77;;;7.37;;
10851;SDS011;5479;52.046;6.314;2023-03-20T05:16:46;13.53;;;7.67;;
10851;SDS011;5479;52.046;6.314;2023-03-20T05:19:15;13.53;;;8.93;;
10851;SDS011;5479;52.046;6.314;2023-03-20T05:21:44;14.83;;;9.67;;
10851;SDS011;5479;52.046;6.314;2023-03-20T05:24:12;15.60;;;9.47;;
10851;SDS011;5479;52.046;6.314;2023-03-20T05:26:40;15.53;;;9.83;;
10851;SDS011;5479;52.046;6.314;2023-03-20T05:29:08;17.20;;;10.50;;
10851;SDS011;5479;52.046;6.314;2023-03-20T05:31:37;17.63;;;10.50;;
10851;SDS011;5479;52.046;6.314;2023-03-20T05:34:05;18.10;;;11.27;;
10851;SDS011;5479;52.046;6.314;2023-03-20T05:36:32;16.27;;;10.67;;
10851;SDS011;5479;52.046;6.314;2023-03-20T05:39:03;16.67;;;11.37;;
10851;SDS011;5479;52.046;6.314;2023-03-20T05:41:31;19.23;;;11.07;;
10851;SDS011;5479;52.046;6.314;2023-03-20T05:43:59;17.40;;;11.37;;
10851;SDS011;5479;52.046;6.314;2023-03-20T05:46:27;16.07;;;11.27;;
10851;SDS011;5479;52.046;6.314;2023-03-20T05:48:55;16.73;;;11.47;;
10851;SDS011;5479;52.046;6.314;2023-03-20T05:51:23;17.20;;;10.97;;
10851;SDS011;5479;52.046;6.314;2023-03-20T05:53:52;18.97;;;11.53;;
10851;SDS011;5479;52.046;6.314;2023-03-20T05:56:21;22.10;;;12.17;;
10851;SDS011;5479;52.046;6.314;2023-03-20T05:58:49;17.30;;;11.40;;
10851;SDS011;5479;52.046;6.314;2023-03-20T06:01:17;16.67;;;11.47;;
10851;SDS011;5479;52.046;6.314;2023-03-20T06:03:46;17.37;;;11.37;;
10851;SDS011;5479;52.046;6.314;2023-03-20T06:06:15;18.57;;;10.87;;
10851;SDS011;5479;52.046;6.314;2023-03-20T06:08:43;17.00;;;9.70;;
10851;SDS011;5479;52.046;6.314;2023-03-20T06:11:12;17.83;;;10.30;;
10851;SDS011;5479;52.046;6.314;2023-03-20T06:13:41;17.33;;;10.33;;
10851;SDS011;5479;52.046;6.314;2023-03-20T06:16:09;17.00;;;10.60;;
10851;SDS011;5479;52.046;6.314;2023-03-20T06:18:37;15.57;;;9.83;;
10851;SDS011;5479;52.046;6.314;2023-03-20T06:21:05;17.53;;;10.33;;
10851;SDS011;5479;52.046;6.314;2023-03-20T06:23:33;15.97;;;10.40;;
10851;SDS011;5479;52.046;6.314;2023-03-20T06:26:01;14.80;;;8.93;;
10851;SDS011;5479;52.046;6.314;2023-03-20T06:28:29;16.07;;;9.50;;
10851;SDS011;5479;52.046;6.314;2023-03-20T06:30:59;14.20;;;9.17;;
10851;SDS011;5479;52.046;6.314;2023-03-20T06:33:26;14.47;;;9.37;;
10851;SDS011;5479;52.046;6.314;2023-03-20T06:35:54;15.63;;;9.50;;
10851;SDS011;5479;52.046;6.314;2023-03-20T06:38:23;13.17;;;9.40;;
10851;SDS011;5479;52.046;6.314;2023-03-20T06:40:51;16.60;;;9.73;;
10851;SDS011;5479;52.046;6.314;2023-03-20T06:43:19;14.03;;;9.17;;
10851;SDS011;5479;52.046;6.314;2023-03-20T06:45:47;14.97;;;9.30;;
10851;SDS011;5479;52.046;6.314;2023-03-20T06:48:16;14.60;;;8.47;;
10851;SDS011;5479;52.046;6.314;2023-03-20T06:50:47;13.77;;;9.00;;
10851;SDS011;5479;52.046;6.314;2023-03-20T06:53:15;13.03;;;8.77;;
10851;SDS011;5479;52.046;6.314;2023-03-20T06:55:46;14.07;;;8.93;;
10851;SDS011;5479;52.046;6.314;2023-03-20T06:58:15;12.90;;;8.53;;
10851;SDS011;5479;52.046;6.314;2023-03-20T07:00:43;13.67;;;9.07;;
10851;SDS011;5479;52.046;6.314;2023-03-20T07:03:11;12.77;;;8.47;;
10851;SDS011;5479;52.046;6.314;2023-03-20T07:05:42;14.50;;;8.87;;
10851;SDS011;5479;52.046;6.314;2023-03-20T07:08:13;14.63;;;9.37;;
10851;SDS011;5479;52.046;6.314;2023-03-20T07:10:43;14.83;;;9.00;;
10851;SDS011;5479;52.046;6.314;2023-03-20T07:13:11;13.33;;;8.93;;
10851;SDS011;5479;52.046;6.314;2023-03-20T07:15:39;14.93;;;8.63;;
10851;SDS011;5479;52.046;6.314;2023-03-20T07:18:07;12.87;;;8.90;;
10851;SDS011;5479;52.046;6.314;2023-03-20T07:20:35;14.30;;;8.50;;
10851;SDS011;5479;52.046;6.314;2023-03-20T07:23:04;12.60;;;8.70;;
10851;SDS011;5479;52.046;6.314;2023-03-20T07:25:32;14.63;;;8.97;;
10851;SDS011;5479;52.046;6.314;2023-03-20T07:28:00;14.60;;;9.37;;
10851;SDS011;5479;52.046;6.314;2023-03-20T07:30:28;15.00;;;8.77;;
10851;SDS011;5479;52.046;6.314;2023-03-20T07:32:57;14.07;;;8.90;;
10851;SDS011;5479;52.046;6.314;2023-03-20T07:35:25;11.37;;;8.20;;
10851;SDS011;5479;52.046;6.314;2023-03-20T07:37:53;13.07;;;8.43;;
10851;SDS011;5479;52.046;6.314;2023-03-20T07:40:23;13.10;;;8.30;;
10851;SDS011;5479;52.046;6.314;2023-03-20T07:42:52;14.47;;;8.17;;
10851;SDS011;5479;52.046;6.314;2023-03-20T07:45:20;13.40;;;8.53;;
10851;SDS011;5479;52.046;6.314;2023-03-20T07:47:48;13.30;;;8.70;;
10851;SDS011;5479;52.046;6.314;2023-03-20T07:50:16;12.63;;;8.30;;
10851;SDS011;5479;52.046;6.314;2023-03-20T07:52:45;13.50;;;8.33;;
10851;SDS011;5479;52.046;6.314;2023-03-20T07:55:13;14.27;;;7.97;;
10851;SDS011;5479;52.046;6.314;2023-03-20T07:57:43;12.67;;;8.20;;
10851;SDS011;5479;52.046;6.314;2023-03-20T08:00:11;13.47;;;8.13;;
10851;SDS011;5479;52.046;6.314;2023-03-20T08:02:40;11.03;;;8.00;;
10851;SDS011;5479;52.046;6.314;2023-03-20T08:05:08;12.93;;;7.90;;
10851;SDS011;5479;52.046;6.314;2023-03-20T08:07:36;13.37;;;7.53;;
10851;SDS011;5479;52.046;6.314;2023-03-20T08:10:04;13.83;;;8.40;;
10851;SDS011;5479;52.046;6.314;2023-03-20T08:12:33;9.80;;;6.87;;
10851;SDS011;5479;52.046;6.314;2023-03-20T08:15:02;12.93;;;7.07;;
10851;SDS011;5479;52.046;6.314;2023-03-20T08:17:30;11.40;;;6.83;;
10851;SDS011;5479;52.046;6.314;2023-03-20T08:20:01;12.53;;;7.33;;
10851;SDS011;5479;52.046;6.314;2023-03-20T08:22:29;11.93;;;6.90;;
10851;SDS011;5479;52.046;6.314;2023-03-20T08:24:57;10.20;;;6.73;;
10851;SDS011;5479;52.046;6.314;2023-03-20T08:27:24;10.90;;;6.47;;
10851;SDS011;5479;52.046;6.314;2023-03-20T08:29:52;12.77;;;7.17;;
10851;SDS011;5479;52.046;6.314;2023-03-20T08:32:22;9.70;;;5.93;;
10851;SDS011;5479;52.046;6.314;2023-03-20T08:34:51;11.23;;;5.93;;
10851;SDS011;5479;52.046;6.314;2023-03-20T08:37:21;10.50;;;6.03;;
10851;SDS011;5479;52.046;6.314;2023-03-20T08:39:49;12.37;;;6.90;;
10851;SDS011;5479;52.046;6.314;2023-03-20T08:42:17;11.93;;;6.07;;
10851;SDS011;5479;52.046;6.314;2023-03-20T08:44:45;11.40;;;6.67;;
10851;SDS011;5479;52.046;6.314;2023-03-20T08:47:13;10.43;;;5.50;;
10851;SDS011;5479;52.046;6.314;2023-03-20T08:49:43;11.77;;;6.20;;
10851;SDS011;5479;52.046;6.314;2023-03-20T08:52:11;10.83;;;6.63;;
10851;SDS011;5479;52.046;6.314;2023-03-20T08:54:39;10.63;;;6.23;;
10851;SDS011;5479;52.046;6.314;2023-03-20T08:57:07;11.20;;;6.00;;
10851;SDS011;5479;52.046;6.314;2023-03-20T08:59:35;11.37;;;5.80;;
10851;SDS011;5479;52.046;6.314;2023-03-20T09:02:03;11.43;;;6.50;;
10851;SDS011;5479;52.046;6.314;2023-03-20T09:04:32;10.67;;;5.93;;
10851;SDS011;5479;52.046;6.314;2023-03-20T09:07:01;9.77;;;6.30;;
10851;SDS011;5479;52.046;6.314;2023-03-20T09:09:29;10.47;;;5.80;;
10851;SDS011;5479;52.046;6.314;2023-03-20T09:11:58;10.93;;;5.93;;
10851;SDS011;5479;52.046;6.314;2023-03-20T09:14:27;14.07;;;5.87;;
10851;SDS011;5479;52.046;6.314;2023-03-20T09:16:55;9.67;;;6.40;;
10851;SDS011;5479;52.046;6.314;2023-03-20T09:19:23;11.20;;;6.00;;
10851;SDS011;5479;52.046;6.314;2023-03-20T09:21:51;9.43;;;5.77;;
10851;SDS011;5479;52.046;6.314;2023-03-20T09:24:20;8.90;;;5.87;;
10851;SDS011;5479;52.046;6.314;2023-03-20T09:26:48;11.97;;;6.43;;
10851;SDS011;5479;52.046;6.314;2023-03-20T09:29:17;11.43;;;6.07;;
10851;SDS011;5479;52.046;6.314;2023-03-20T09:31:45;10.93;;;5.87;;
10851;SDS011;5479;52.046;6.314;2023-03-20T09:34:13;11.37;;;5.97;;
10851;SDS011;5479;52.046;6.314;2023-03-20T09:36:41;9.33;;;5.77;;
10851;SDS011;5479;52.046;6.314;2023-03-20T09:39:08;10.50;;;6.20;;
10851;SDS011;5479;52.046;6.314;2023-03-20T09:41:38;11.43;;;5.87;;
10851;SDS011;5479;52.046;6.314;2023-03-20T09:44:09;9.70;;;6.13;;
10851;SDS011;5479;52.046;6.314;2023-03-20T09:46:46;13.57;;;7.60;;
10851;SDS011;5479;52.046;6.314;2023-03-20T09:49:23;11.37;;;6.60;;
10851;SDS011;5479;52.046;6.314;2023-03-20T09:52:09;9.47;;;6.03;;
10851;SDS011;5479;52.046;6.314;2023-03-20T09:54:47;12.43;;;6.83;;
10851;SDS011;5479;52.046;6.314;2023-03-20T09:57:20;8.70;;;5.83;;
10851;SDS011;5479;52.046;6.314;2023-03-20T09:59:52;10.33;;;6.10;;
10851;SDS011;5479;52.046;6.314;2023-03-20T10:02:26;10.87;;;5.87;;
10851;SDS011;5479;52.046;6.314;2023-03-20T10:05:02;10.07;;;5.90;;
10851;SDS011;5479;52.046;6.314;2023-03-20T10:07:39;9.50;;;5.63;;
10851;SDS011;5479;52.046;6.314;2023-03-20T10:10:08;9.93;;;5.77;;
10851;SDS011;5479;52.046;6.314;2023-03-20T10:12:43;11.87;;;5.83;;
10851;SDS011;5479;52.046;6.314;2023-03-20T10:15:18;9.13;;;5.07;;
10851;SDS011;5479;52.046;6.314;2023-03-20T10:17:55;9.63;;;5.43;;
10851;SDS011;5479;52.046;6.314;2023-03-20T10:20:31;10.03;;;5.17;;
10851;SDS011;5479;52.046;6.314;2023-03-20T10:23:03;8.73;;;5.17;;
10851;SDS011;5479;52.046;6.314;2023-03-20T10:25:34;10.10;;;4.83;;
10851;SDS011;5479;52.046;6.314;2023-03-20T10:28:10;9.80;;;5.27;;
10851;SDS011;5479;52.046;6.314;2023-03-20T10:30:43;8.70;;;4.70;;
10851;SDS011;5479;52.046;6.314;2023-03-20T10:33:22;7.10;;;3.77;;
10851;SDS011;5479;52.046;6.314;2023-03-20T10:36:01;8.10;;;4.10;;
10851;SDS011;5479;52.046;6.314;2023-03-20T10:38:42;10.90;;;4.27;;
10851;SDS011;5479;52.046;6.314;2023-03-20T10:41:19;10.37;;;4.37;;
10851;SDS011;5479;52.046;6.314;2023-03-20T10:43:51;8.10;;;3.70;;
10851;SDS011;5479;52.046;6.314;2023-03-20T10:46:20;7.70;;;4.07;;
10851;SDS011;5479;52.046;6.314;2023-03-20T10:48:55;9.60;;;4.17;;
10851;SDS011;5479;52.046;6.314;2023-03-20T10:51:29;9.70;;;4.23;;
10851;SDS011;5479;52.046;6.314;2023-03-20T10:54:05;10.67;;;4.20;;
10851;SDS011;5479;52.046;6.314;2023-03-20T10:56:46;8.67;;;4.07;;
10851;SDS011;5479;52.046;6.314;2023-03-20T10:59:19;7.27;;;4.10;;
10851;SDS011;5479;52.046;6.314;2023-03-20T11:01:50;9.40;;;4.60;;
10851;SDS011;5479;52.046;6.314;2023-03-20T11:04:19;7.43;;;4.17;;
10851;SDS011;5479;52.046;6.314;2023-03-20T11:06:48;9.97;;;4.43;;
10851;SDS011;5479;52.046;6.314;2023-03-20T11:09:24;8.87;;;4.43;;
10851;SDS011;5479;52.046;6.314;2023-03-20T11:11:55;10.70;;;4.37;;
10851;SDS011;5479;52.046;6.314;2023-03-20T11:14:27;11.07;;;4.93;;
10851;SDS011;5479;52.046;6.314;2023-03-20T11:17:00;8.23;;;4.60;;
10851;SDS011;5479;52.046;6.314;2023-03-20T11:19:31;9.23;;;4.53;;
10851;SDS011;5479;52.046;6.314;2023-03-20T11:22:05;8.37;;;4.33;;
10851;SDS011;5479;52.046;6.314;2023-03-20T11:24:36;7.23;;;4.07;;
10851;SDS011;5479;52.046;6.314;2023-03-20T11:27:07;8.63;;;4.53;;
10851;SDS011;5479;52.046;6.314;2023-03-20T11:29:39;6.33;;;3.73;;
10851;SDS011;5479;52.046;6.314;2023-03-20T11:32:26;8.97;;;4.80;;
10851;SDS011;5479;52.046;6.314;2023-03-20T11:35:09;8.17;;;4.53;;
10851;SDS011;5479;52.046;6.314;2023-03-20T11:37:42;7.73;;;4.47;;
10851;SDS011;5479;52.046;6.314;2023-03-20T11:40:14;6.67;;;4.23;;
10851;SDS011;5479;52.046;6.314;2023-03-20T11:42:50;7.63;;;4.33;;
10851;SDS011;5479;52.046;6.314;2023-03-20T11:45:20;9.27;;;4.10;;
10851;SDS011;5479;52.046;6.314;2023-03-20T11:47:49;8.00;;;3.90;;
10851;SDS011;5479;52.046;6.314;2023-03-20T11:50:26;9.37;;;4.17;;
10851;SDS011;5479;52.046;6.314;2023-03-20T11:52:59;8.30;;;4.30;;
10851;SDS011;5479;52.046;6.314;2023-03-20T11:55:28;8.53;;;4.07;;
10851;SDS011;5479;52.046;6.314;2023-03-20T11:57:59;8.50;;;4.70;;
10851;SDS011;5479;52.046;6.314;2023-03-20T12:00:35;10.23;;;4.33;;
10851;SDS011;5479;52.046;6.314;2023-03-20T12:03:11;7.43;;;3.87;;
10851;SDS011;5479;52.046;6.314;2023-03-20T12:05:57;10.70;;;4.30;;
10851;SDS011;5479;52.046;6.314;2023-03-20T12:08:27;7.20;;;3.63;;
10851;SDS011;5479;52.046;6.314;2023-03-20T12:10:58;7.33;;;3.80;;
10851;SDS011;5479;52.046;6.314;2023-03-20T12:13:36;8.33;;;4.00;;
10851;SDS011;5479;52.046;6.314;2023-03-20T12:16:12;7.63;;;3.80;;
10851;SDS011;5479;52.046;6.314;2023-03-20T12:18:44;8.73;;;4.27;;
10851;SDS011;5479;52.046;6.314;2023-03-20T12:21:16;6.40;;;3.67;;
10851;SDS011;5479;52.046;6.314;2023-03-20T12:23:50;7.23;;;3.30;;
10851;SDS011;5479;52.046;6.314;2023-03-20T12:26:23;8.27;;;3.70;;
10851;SDS011;5479;52.046;6.314;2023-03-20T12:28:59;7.60;;;3.40;;
10851;SDS011;5479;52.046;6.314;2023-03-20T12:31:35;7.10;;;3.50;;
10851;SDS011;5479;52.046;6.314;2023-03-20T12:34:09;5.90;;;3.17;;
10851;SDS011;5479;52.046;6.314;2023-03-20T12:36:42;6.67;;;3.37;;
10851;SDS011;5479;52.046;6.314;2023-03-20T12:39:13;6.83;;;3.43;;
10851;SDS011;5479;52.046;6.314;2023-03-20T12:41:47;10.00;;;3.67;;
10851;SDS011;5479;52.046;6.314;2023-03-20T12:44:27;7.37;;;3.40;;
10851;SDS011;5479;52.046;6.314;2023-03-20T12:49:59;7.03;;;3.40;;
10851;SDS011;5479;52.046;6.314;2023-03-20T12:52:39;6.03;;;3.17;;
10851;SDS011;5479;52.046;6.314;2023-03-20T12:55:20;11.00;;;3.90;;
10851;SDS011;5479;52.046;6.314;2023-03-20T12:58:10;9.77;;;3.90;;
10851;SDS011;5479;52.046;6.314;2023-03-20T13:00:49;7.33;;;3.73;;
10851;SDS011;5479;52.046;6.314;2023-03-20T13:03:30;7.37;;;3.57;;
10851;SDS011;5479;52.046;6.314;2023-03-20T13:06:13;6.60;;;3.63;;
10851;SDS011;5479;52.046;6.314;2023-03-20T13:08:51;7.60;;;3.63;;
10851;SDS011;5479;52.046;6.314;2023-03-20T13:11:35;9.80;;;4.23;;
10851;SDS011;5479;52.046;6.314;2023-03-20T13:14:10;7.80;;;3.90;;
10851;SDS011;5479;52.046;6.314;2023-03-20T13:16:42;9.57;;;4.30;;
10851;SDS011;5479;52.046;6.314;2023-03-20T13:19:20;9.73;;;4.57;;
10851;SDS011;5479;52.046;6.314;2023-03-20T13:21:55;8.27;;;4.67;;
10851;SDS011;5479;52.046;6.314;2023-03-20T13:24:32;9.57;;;4.10;;
10851;SDS011;5479;52.046;6.314;2023-03-20T13:27:07;7.50;;;4.40;;
10851;SDS011;5479;52.046;6.314;2023-03-20T13:29:45;7.60;;;4.17;;
10851;SDS011;5479;52.046;6.314;2023-03-20T13:32:21;9.93;;;4.37;;
10851;SDS011;5479;52.046;6.314;2023-03-20T13:35:12;8.17;;;4.30;;
10851;SDS011;5479;52.046;6.314;2023-03-20T13:37:47;11.27;;;4.60;;
10851;SDS011;5479;52.046;6.314;2023-03-20T13:40:23;8.70;;;4.63;;
10851;SDS011;5479;52.046;6.314;2023-03-20T13:42:56;9.40;;;4.53;;
10851;SDS011;5479;52.046;6.314;2023-03-20T13:45:30;10.20;;;5.47;;
10851;SDS011;5479;52.046;6.314;2023-03-20T13:48:02;8.20;;;4.50;;
10851;SDS011;5479;52.046;6.314;2023-03-20T13:50:43;11.07;;;5.00;;
10851;SDS011;5479;52.046;6.314;2023-03-20T13:53:22;11.83;;;5.47;;
10851;SDS011;5479;52.046;6.314;2023-03-20T13:55:59;9.67;;;5.00;;
10851;SDS011;5479;52.046;6.314;2023-03-20T13:58:44;9.33;;;5.33;;
10851;SDS011;5479;52.046;6.314;2023-03-20T14:01:33;10.13;;;5.40;;
10851;SDS011;5479;52.046;6.314;2023-03-20T14:04:13;9.73;;;5.80;;
10851;SDS011;5479;52.046;6.314;2023-03-20T14:06:48;9.87;;;5.23;;
10851;SDS011;5479;52.046;6.314;2023-03-20T14:09:23;10.17;;;5.27;;
10851;SDS011;5479;52.046;6.314;2023-03-20T14:11:53;12.33;;;5.70;;
10851;SDS011;5479;52.046;6.314;2023-03-20T14:14:24;11.33;;;6.13;;
10851;SDS011;5479;52.046;6.314;2023-03-20T14:16:59;13.30;;;6.40;;
10851;SDS011;5479;52.046;6.314;2023-03-20T14:19:28;12.43;;;6.00;;
10851;SDS011;5479;52.046;6.314;2023-03-20T14:21:58;13.20;;;7.00;;
10851;SDS011;5479;52.046;6.314;2023-03-20T14:24:26;14.63;;;6.77;;
10851;SDS011;5479;52.046;6.314;2023-03-20T14:26:55;12.70;;;7.20;;
10851;SDS011;5479;52.046;6.314;2023-03-20T14:29:32;11.43;;;6.33;;
10851;SDS011;5479;52.046;6.314;2023-03-20T14:32:04;11.30;;;6.57;;
10851;SDS011;5479;52.046;6.314;2023-03-20T14:34:49;11.33;;;6.70;;
10851;SDS011;5479;52.046;6.314;2023-03-20T14:37:27;16.17;;;6.80;;
10851;SDS011;5479;52.046;6.314;2023-03-20T14:40:03;11.43;;;6.93;;
10851;SDS011;5479;52.046;6.314;2023-03-20T14:42:47;12.60;;;7.07;;
10851;SDS011;5479;52.046;6.314;2023-03-20T14:48:10;13.40;;;7.40;;
10851;SDS011;5479;52.046;6.314;2023-03-20T14:50:53;15.50;;;7.30;;
10851;SDS011;5479;52.046;6.314;2023-03-20T14:53:42;18.43;;;8.37;;
10851;SDS011;5479;52.046;6.314;2023-03-20T14:56:10;10.37;;;7.10;;
10851;SDS011;5479;52.046;6.314;2023-03-20T14:58:54;12.97;;;7.93;;
10851;SDS011;5479;52.046;6.314;2023-03-20T15:01:25;14.10;;;7.50;;
10851;SDS011;5479;52.046;6.314;2023-03-20T15:04:01;13.77;;;8.10;;
10851;SDS011;5479;52.046;6.314;2023-03-20T15:06:33;13.63;;;8.13;;
10851;SDS011;5479;52.046;6.314;2023-03-20T15:09:11;13.83;;;8.13;;
10851;SDS011;5479;52.046;6.314;2023-03-20T15:11:39;16.27;;;9.03;;
10851;SDS011;5479;52.046;6.314;2023-03-20T15:14:10;13.43;;;7.90;;
10851;SDS011;5479;52.046;6.314;2023-03-20T15:16:46;12.80;;;8.13;;
10851;SDS011;5479;52.046;6.314;2023-03-20T15:19:16;11.93;;;8.13;;
10851;SDS011;5479;52.046;6.314;2023-03-20T15:21:46;16.40;;;9.30;;
10851;SDS011;5479;52.046;6.314;2023-03-20T15:24:20;17.90;;;8.90;;
10851;SDS011;5479;52.046;6.314;2023-03-20T15:26:52;15.73;;;8.73;;
10851;SDS011;5479;52.046;6.314;2023-03-20T15:29:23;13.43;;;8.67;;